Time;durP1;ratioP1;P1;durP2;ratioP2;P2;SDS_P1;SDS_P2;PMS_P1;PMS_P2;Temp;Humidity;BMP_temperature;BMP_pressure;BME280_temperature;BME280_humidity;BME280_pressure;Samples;Min_cycle;Max_cycle;Signal;HPM_P1;HPM_P2
2021/03/15 00:01:50;;;;;;;12.63;8.77;;;7.90;97.30;;;;;;5068204;28;20436;-74
2021/03/15 00:04:16;;;;;;;11.88;7.97;;;7.90;97.20;;;;;;5071818;28;20025;-73
2021/03/15 00:06:43;;;;;;;11.85;8.65;;;7.90;97.10;;;;;;5071818;28;20032;-72
2021/03/15 00:09:08;;;;;;;13.57;9.10;;;7.90;97.10;;;;;;5071686;28;20378;-72
2021/03/15 00:11:35;;;;;;;15.30;9.48;;;7.90;97.50;;;;;;5071751;28;20040;-73
2021/03/15 00:14:01;;;;;;;14.20;9.10;;;7.90;97.50;;;;;;5071583;28;20029;-73
2021/03/15 00:16:27;;;;;;;14.73;10.38;;;7.90;97.30;;;;;;5071229;28;20033;-74
2021/03/15 00:18:53;;;;;;;18.80;11.15;;;7.90;97.40;;;;;;5056177;28;20102;-73
2021/03/15 00:21:19;;;;;;;18.10;10.13;;;8.00;97.70;;;;;;5056132;28;20424;-74
2021/03/15 00:23:44;;;;;;;13.65;9.88;;;8.00;97.40;;;;;;5056141;28;20028;-74
2021/03/15 00:26:10;;;;;;;13.68;9.63;;;7.90;97.40;;;;;;5056017;28;20362;-73
2021/03/15 00:28:36;;;;;;;13.77;10.35;;;8.00;97.60;;;;;;5055981;28;20032;-74
2021/03/15 00:31:02;;;;;;;13.30;9.75;;;7.90;97.60;;;;;;5055971;28;20021;-73
2021/03/15 00:33:28;;;;;;;14.27;10.00;;;8.00;97.70;;;;;;5070899;28;20056;-73
2021/03/15 00:35:54;;;;;;;13.82;9.88;;;8.00;97.90;;;;;;5054481;28;20024;-73
2021/03/15 00:38:20;;;;;;;14.32;10.05;;;7.90;97.80;;;;;;5071178;28;20091;-76
2021/03/15 00:40:46;;;;;;;14.57;9.48;;;7.80;97.90;;;;;;5054518;28;20126;-74
2021/03/15 00:43:12;;;;;;;17.42;11.25;;;7.70;98.00;;;;;;5071210;28;20025;-75
2021/03/15 00:45:37;;;;;;;17.27;10.30;;;7.70;98.40;;;;;;5054381;28;20029;-76
2021/03/15 00:48:03;;;;;;;14.10;10.35;;;7.60;98.80;;;;;;5054396;28;20025;-76
2021/03/15 00:50:40;;;;;;;18.10;10.57;;;7.50;98.60;;;;;;5054215;28;20028;-75
2021/03/15 00:53:06;;;;;;;20.83;10.82;;;7.50;98.80;;;;;;5055608;28;20107;-77
2021/03/15 00:55:32;;;;;;;16.00;10.07;;;7.40;98.70;;;;;;5054164;28;20376;-75
2021/03/15 00:57:58;;;;;;;15.77;9.82;;;7.40;99.40;;;;;;5055788;28;20021;-74
2021/03/15 01:00:30;;;;;;;20.83;12.23;;;7.20;99.30;;;;;;5055331;28;20112;-75
2021/03/15 01:02:56;;;;;;;18.58;10.35;;;7.20;99.90;;;;;;5055451;28;20469;-72
2021/03/15 01:05:39;;;;;;;15.23;10.40;;;7.10;99.50;;;;;;5055042;28;20037;-75
2021/03/15 01:08:09;;;;;;;23.92;13.20;;;7.00;99.80;;;;;;5054019;28;20035;-68
2021/03/15 01:10:37;;;;;;;11.80;9.40;;;7.00;99.90;;;;;;5053959;28;20436;-67
2021/03/15 01:13:04;;;;;;;14.30;9.98;;;6.90;99.90;;;;;;5054933;28;20100;-72
2021/03/15 01:15:30;;;;;;;11.05;9.48;;;6.80;99.90;;;;;;5055417;28;20029;-71
2021/03/15 01:17:57;;;;;;;11.95;8.68;;;;;;;;;;5055060;28;20025;-70
2021/03/15 01:20:23;;;;;;;17.98;11.48;;;6.70;99.90;;;;;;5070309;28;20040;-73
2021/03/15 01:22:50;;;;;;;24.52;12.60;;;6.60;99.90;;;;;;5070439;28;20053;-71
2021/03/15 01:25:18;;;;;;;22.38;13.15;;;6.60;99.90;;;;;;5053682;28;20048;-72
2021/03/15 01:27:43;;;;;;;18.95;11.68;;;6.50;99.90;;;;;;5054899;28;20066;-71
2021/03/15 01:30:17;;;;;;;16.08;10.90;;;6.40;99.90;;;;;;5054888;28;20037;-72
2021/03/15 01:32:43;;;;;;;25.27;11.73;;;6.40;99.90;;;;;;5054513;28;20052;-71
2021/03/15 01:35:09;;;;;;;15.07;9.60;;;6.40;99.90;;;;;;5070195;28;20029;-73
2021/03/15 01:37:35;;;;;;;16.38;10.32;;;6.40;99.90;;;;;;5070057;28;20025;-72
2021/03/15 01:40:02;;;;;;;13.45;10.10;;;6.30;99.90;;;;;;5054606;28;20036;-73
2021/03/15 01:42:28;;;;;;;14.43;8.50;;;6.30;99.90;;;;;;5069991;28;20074;-70
2021/03/15 01:44:54;;;;;;;10.73;8.38;;;6.30;99.90;;;;;;5054315;28;20112;-69
2021/03/15 01:47:21;;;;;;;15.70;9.25;;;6.30;99.90;;;;;;5069849;28;20465;-69
2021/03/15 01:49:46;;;;;;;10.95;8.30;;;6.20;99.90;;;;;;5054449;28;20024;-70
2021/03/15 01:52:12;;;;;;;13.90;8.48;;;6.10;99.90;;;;;;5069845;28;20025;-70
2021/03/15 01:54:38;;;;;;;10.65;7.10;;;6.10;99.90;;;;;;5054388;28;20028;-69
2021/03/15 01:57:04;;;;;;;9.70;6.45;;;6.10;99.90;;;;;;5069604;28;20029;-72
2021/03/15 01:59:31;;;;;;;9.77;7.35;;;6.00;99.90;;;;;;5054459;28;20029;-73
2021/03/15 02:01:57;;;;;;;12.52;7.78;;;6.00;99.90;;;;;;5054307;28;20029;-70
2021/03/15 02:04:26;;;;;;;12.00;8.55;;;5.90;99.90;;;;;;5054121;28;20025;-72
2021/03/15 02:06:52;;;;;;;10.63;7.78;;;5.90;99.90;;;;;;5069528;28;20380;-73
2021/03/15 02:09:19;;;;;;;10.38;7.13;;;5.90;99.90;;;;;;5054095;28;20027;-70
2021/03/15 02:12:04;;;;;;;11.50;7.10;;;5.90;99.90;;;;;;5069408;28;20064;-70
2021/03/15 02:14:35;;;;;;;10.50;7.10;;;5.90;99.90;;;;;;5069309;28;20029;-71
2021/03/15 02:17:16;;;;;;;13.48;8.82;;;5.80;99.90;;;;;;5054319;28;20087;-73
2021/03/15 02:20:00;;;;;;;11.85;7.35;;;5.90;99.90;;;;;;5069206;28;20053;-71
2021/03/15 02:22:51;;;;;;;16.08;8.90;;;5.80;99.90;;;;;;5053629;28;20493;-74
2021/03/15 02:25:54;;;;;;;15.23;8.35;;;5.90;99.90;;;;;;5053108;28;20024;-72
2021/03/15 02:28:32;;;;;;;9.75;6.93;;;5.90;99.90;;;;;;5053720;28;20025;-74
2021/03/15 02:31:31;;;;;;;9.75;6.28;;;5.90;99.80;;;;;;5053498;28;20044;-74
2021/03/15 02:34:03;;;;;;;8.20;6.40;;;6.00;99.70;;;;;;5053207;28;20041;-70
2021/03/15 02:36:38;;;;;;;8.80;6.70;;;5.80;99.10;;;;;;5053566;28;20115;-75
2021/03/15 02:39:10;;;;;;;10.50;7.20;;;5.80;99.40;;;;;;5068977;28;20025;-72
2021/03/15 02:41:39;;;;;;;9.52;6.32;;;5.80;99.30;;;;;;5053541;28;20065;-72
2021/03/15 02:44:08;;;;;;;9.73;6.10;;;5.90;98.60;;;;;;5068887;28;20025;-69
2021/03/15 02:46:36;;;;;;;9.50;6.60;;;5.90;98.80;;;;;;5053487;28;20068;-73
2021/03/15 02:49:06;;;;;;;10.98;7.00;;;5.90;98.90;;;;;;5068716;28;20083;-74
2021/03/15 02:51:37;;;;;;;10.32;6.57;;;5.90;98.80;;;;;;5053736;28;20039;-73
2021/03/15 02:54:04;;;;;;;13.25;7.47;;;5.80;98.70;;;;;;5068717;28;20471;-72
2021/03/15 02:56:33;;;;;;;10.20;7.90;;;5.90;98.80;;;;;;5053312;28;20029;-74
2021/03/15 02:59:03;;;;;;;11.10;7.28;;;5.90;99.00;;;;;;5068640;28;20029;-74
2021/03/15 03:01:31;;;;;;;10.75;8.07;;;5.90;99.00;;;;;;5068572;28;20090;-71
2021/03/15 03:03:58;;;;;;;8.90;6.28;;;5.90;98.80;;;;;;5051885;28;20025;-74
2021/03/15 03:06:29;;;;;;;9.18;6.72;;;5.90;98.00;;;;;;5053175;28;20029;-73
2021/03/15 03:08:57;;;;;;;9.70;6.53;;;5.90;98.20;;;;;;5053197;28;20027;-69
2021/03/15 03:11:28;;;;;;;11.35;6.70;;;5.80;98.20;;;;;;5053357;28;20115;-75
2021/03/15 03:13:55;;;;;;;10.75;7.75;;;5.80;98.00;;;;;;5068517;28;20480;-72
2021/03/15 03:16:25;;;;;;;9.82;7.15;;;5.80;98.10;;;;;;5053022;28;20025;-73
2021/03/15 03:18:55;;;;;;;9.75;6.82;;;5.70;98.20;;;;;;5068456;28;20511;-72
2021/03/15 03:21:22;;;;;;;10.15;7.15;;;5.70;98.20;;;;;;5068384;28;20036;-72
2021/03/15 03:23:51;;;;;;;9.98;7.88;;;5.60;98.40;;;;;;5068445;28;20049;-72
2021/03/15 03:26:21;;;;;;;11.13;7.22;;;5.60;98.30;;;;;;5068350;28;20079;-73
2021/03/15 03:28:49;;;;;;;10.77;7.15;;;5.50;98.00;;;;;;5053240;28;20057;-72
2021/03/15 03:31:17;;;;;;;9.77;6.53;;;5.50;97.90;;;;;;5053176;28;20043;-72
2021/03/15 03:33:43;;;;;;;12.35;7.65;;;5.50;98.20;;;;;;5052742;28;20060;-74
2021/03/15 03:36:09;;;;;;;10.82;7.05;;;5.40;98.30;;;;;;5053578;28;20036;-74
2021/03/15 03:38:35;;;;;;;7.30;5.63;;;5.40;98.00;;;;;;5056996;28;20029;-73
2021/03/15 03:41:01;;;;;;;8.93;6.68;;;5.30;97.70;;;;;;5056848;28;20065;-76
2021/03/15 03:43:27;;;;;;;11.25;6.95;;;5.30;98.30;;;;;;5055672;28;20378;-73
2021/03/15 03:45:52;;;;;;;8.13;5.93;;;5.30;97.40;;;;;;5072230;28;20036;-69
2021/03/15 03:48:18;;;;;;;10.98;6.30;;;5.20;97.70;;;;;;5056803;28;20068;-69
2021/03/15 03:50:44;;;;;;;7.90;5.22;;;5.10;98.00;;;;;;5057043;28;20045;-72
2021/03/15 03:53:19;;;;;;;7.32;5.60;;;5.10;97.50;;;;;;5056713;28;20036;-71
2021/03/15 03:56:11;;;;;;;6.97;5.75;;;5.00;97.90;;;;;;5072138;28;20036;-72
2021/03/15 03:58:46;;;;;;;6.93;5.03;;;4.90;98.10;;;;;;5053185;28;20037;-71
2021/03/15 04:01:14;;;;;;;7.50;5.50;;;4.90;98.10;;;;;;5056549;28;20500;-74
2021/03/15 04:03:45;;;;;;;7.07;5.55;;;4.80;98.20;;;;;;5056540;28;20028;-72
2021/03/15 04:06:13;;;;;;;9.30;6.28;;;4.80;98.40;;;;;;5056542;28;20492;-72
2021/03/15 04:08:57;;;;;;;7.25;5.25;;;4.80;98.30;;;;;;5071713;28;20033;-71
2021/03/15 04:11:25;;;;;;;6.45;5.55;;;4.70;98.00;;;;;;5071784;28;20031;-73
2021/03/15 04:13:54;;;;;;;10.95;6.65;;;4.80;98.10;;;;;;5056368;28;20083;-71
2021/03/15 04:16:28;;;;;;;7.95;6.32;;;4.70;98.40;;;;;;5055973;28;20384;-75
2021/03/15 04:18:56;;;;;;;7.97;6.60;;;4.60;98.40;;;;;;5056520;28;20033;-71
2021/03/15 04:21:28;;;;;;;8.00;6.50;;;4.60;98.60;;;;;;5056097;28;20043;-74
2021/03/15 04:23:58;;;;;;;9.55;6.53;;;4.50;98.50;;;;;;5056199;28;20029;-71
2021/03/15 04:26:25;;;;;;;7.73;6.23;;;4.50;98.20;;;;;;5056066;28;20029;-74
2021/03/15 04:28:56;;;;;;;8.07;6.30;;;4.50;98.40;;;;;;5056350;28;20025;-70
2021/03/15 04:31:26;;;;;;;8.35;6.18;;;4.50;98.20;;;;;;5056033;28;20417;-73
2021/03/15 04:33:53;;;;;;;8.20;6.80;;;4.50;98.30;;;;;;5055550;28;20051;-75
2021/03/15 04:36:19;;;;;;;7.18;6.07;;;4.50;98.90;;;;;;5055640;28;20020;-71
2021/03/15 04:38:46;;;;;;;10.35;6.82;;;4.60;98.70;;;;;;5055891;28;20021;-70
2021/03/15 04:41:15;;;;;;;8.20;6.32;;;4.50;99.10;;;;;;5055482;28;20424;-69
2021/03/15 04:43:41;;;;;;;8.30;6.68;;;4.50;98.60;;;;;;5055808;28;20096;-70
2021/03/15 04:46:08;;;;;;;9.80;6.90;;;4.50;98.60;;;;;;5055746;28;20414;-72
2021/03/15 04:48:37;;;;;;;8.13;6.67;;;4.50;99.00;;;;;;5070350;28;20025;-71
2021/03/15 04:51:06;;;;;;;9.07;6.97;;;4.40;98.80;;;;;;5055643;28;20021;-73
2021/03/15 04:53:36;;;;;;;7.07;6.38;;;4.50;98.80;;;;;;5055379;28;20071;-69
2021/03/15 04:56:08;;;;;;;9.23;7.15;;;4.50;98.90;;;;;;5055253;28;20078;-74
2021/03/15 04:58:37;;;;;;;9.38;7.30;;;4.50;99.10;;;;;;5070940;28;20366;-73
2021/03/15 05:01:05;;;;;;;8.40;6.28;;;4.50;99.40;;;;;;5061667;28;20035;-69
2021/03/15 05:03:33;;;;;;;14.55;7.82;;;4.50;99.00;;;;;;5074084;28;20024;-71
2021/03/15 05:05:59;;;;;;;8.93;7.60;;;4.50;99.60;;;;;;5075373;28;20044;-70
2021/03/15 05:08:28;;;;;;;7.82;6.53;;;4.40;99.00;;;;;;5075385;28;20029;-73
2021/03/15 05:10:58;;;;;;;8.30;7.30;;;4.40;99.40;;;;;;5073955;28;20028;-71
2021/03/15 05:13:24;;;;;;;6.90;5.80;;;4.40;99.10;;;;;;5074973;28;20024;-67
2021/03/15 05:15:50;;;;;;;6.97;6.28;;;4.30;98.80;;;;;;5073901;28;20031;-72
2021/03/15 05:18:17;;;;;;;8.85;6.68;;;4.20;99.50;;;;;;5073855;28;20037;-71
2021/03/15 05:20:45;;;;;;;7.38;6.20;;;4.20;99.50;;;;;;5073687;28;20090;-67
2021/03/15 05:23:13;;;;;;;9.45;6.90;;;4.10;99.20;;;;;;5074815;28;20027;-74
2021/03/15 05:25:42;;;;;;;7.93;6.67;;;4.10;99.00;;;;;;5073759;28;20457;-74
2021/03/15 05:28:09;;;;;;;8.73;7.40;;;4.10;99.00;;;;;;5075009;28;20076;-71
2021/03/15 05:30:36;;;;;;;10.43;7.97;;;4.10;99.20;;;;;;5073597;28;20484;-69
2021/03/15 05:33:04;;;;;;;8.90;6.93;;;4.10;99.30;;;;;;5074561;28;20135;-69
2021/03/15 05:35:31;;;;;;;10.37;7.93;;;3.90;99.00;;;;;;5090345;28;20474;-72
2021/03/15 05:37:58;;;;;;;12.93;8.47;;;3.90;99.20;;;;;;5090245;28;20063;-68
2021/03/15 05:40:24;;;;;;;11.23;7.93;;;3.80;99.30;;;;;;5074656;28;20036;-70
2021/03/15 05:43:09;;;;;;;8.43;7.07;;;3.80;99.30;;;;;;5090266;28;20107;-70
2021/03/15 05:46:00;;;;;;;14.40;8.67;;;3.80;99.10;;;;;;5074962;28;20115;-67
2021/03/15 05:48:48;;;;;;;10.30;7.68;;;3.60;99.60;;;;;;5074857;28;20017;-70
2021/03/15 05:51:40;;;;;;;12.05;9.10;;;3.60;99.20;;;;;;5074508;28;20507;-72
2021/03/15 05:54:33;;;;;;;14.57;9.65;;;3.60;99.20;;;;;;5074738;28;20068;-73
2021/03/15 05:57:13;;;;;;;15.03;9.77;;;3.50;99.30;;;;;;5073167;28;20392;-72
2021/03/15 06:00:10;;;;;;;11.77;8.50;;;3.40;98.90;;;;;;5073171;28;20412;-71
2021/03/15 06:02:59;;;;;;;10.10;6.87;;;3.30;98.90;;;;;;5072985;28;20033;-72
2021/03/15 06:05:28;;;;;;;11.93;8.17;;;3.20;98.70;;;;;;5072930;28;20024;-72
2021/03/15 06:08:03;;;;;;;11.37;8.47;;;3.10;99.00;;;;;;5074165;28;20033;-71
2021/03/15 06:10:41;;;;;;;13.13;8.23;;;3.00;98.80;;;;;;5072821;28;20033;-69
2021/03/15 06:13:16;;;;;;;20.40;12.07;;;2.80;99.20;;;;;;5074161;28;20162;-70
2021/03/15 06:15:44;;;;;;;26.60;14.53;;;2.70;99.30;;;;;;5063856;28;20028;-71
2021/03/15 06:18:13;;;;;;;29.73;15.40;;;2.70;99.70;;;;;;5054081;28;20033;-74
2021/03/15 06:20:44;;;;;;;27.23;15.97;;;2.60;99.60;;;;;;5067844;28;20520;-72
2021/03/15 06:23:11;;;;;;;31.63;16.35;;;2.60;99.70;;;;;;5073937;28;20086;-72
2021/03/15 06:25:37;;;;;;;24.97;13.70;;;2.60;99.70;;;;;;5072559;28;20032;-74
2021/03/15 06:28:05;;;;;;;33.00;17.73;;;2.60;99.40;;;;;;5073763;28;20028;-72
2021/03/15 06:30:31;;;;;;;29.23;15.47;;;2.60;99.70;;;;;;5072374;28;20372;-72
2021/03/15 06:32:59;;;;;;;21.67;12.87;;;2.60;99.50;;;;;;5071842;28;20404;-73
2021/03/15 06:35:41;;;;;;;20.77;13.17;;;2.60;99.70;;;;;;5072256;28;20028;-72
2021/03/15 06:38:07;;;;;;;20.73;13.02;;;2.60;99.60;;;;;;5073492;28;20028;-73
2021/03/15 06:40:34;;;;;;;18.50;11.67;;;2.70;99.70;;;;;;5072037;28;20064;-74
2021/03/15 06:43:03;;;;;;;13.20;9.90;;;2.60;99.60;;;;;;5058000;28;20469;-73
2021/03/15 06:45:29;;;;;;;19.37;10.70;;;2.70;99.50;;;;;;5053199;28;20383;-75
2021/03/15 06:47:55;;;;;;;17.97;10.37;;;3.40;99.90;;;;;;5053336;28;20021;-74
2021/03/15 06:50:21;;;;;;;20.17;11.37;;;3.70;99.90;;;;;;5053354;28;20075;-71
2021/03/15 06:52:53;;;;;;;18.73;10.93;;;3.40;99.50;;;;;;5053296;28;20099;-72
2021/03/15 06:55:30;;;;;;;12.87;8.80;;;3.30;99.80;;;;;;5053257;28;20051;-72
2021/03/15 06:57:56;;;;;;;13.70;9.63;;;3.30;99.90;;;;;;5053305;28;20094;-74
2021/03/15 07:00:30;;;;;;;16.27;10.17;;;3.30;99.90;;;;;;5053185;28;20453;-74
2021/03/15 07:03:01;;;;;;;17.60;11.13;;;3.30;99.90;;;;;;5067208;28;20362;-71
2021/03/15 07:05:29;;;;;;;19.98;14.02;;;3.20;99.90;;;;;;5073290;28;20112;-72
2021/03/15 07:08:02;;;;;;;24.63;14.67;;;3.20;99.90;;;;;;5073171;28;20060;-71
2021/03/15 07:10:29;;;;;;;13.87;10.57;;;3.10;99.90;;;;;;5086697;28;20033;-70
2021/03/15 07:13:10;;;;;;;17.53;10.93;;;3.20;99.90;;;;;;5067343;28;20033;-73
2021/03/15 07:15:36;;;;;;;16.40;10.43;;;3.20;99.90;;;;;;5073084;28;20024;-72
2021/03/15 07:18:17;;;;;;;15.57;10.93;;;3.20;99.90;;;;;;5071225;28;20090;-70
2021/03/15 07:20:47;;;;;;;14.37;10.27;;;3.20;99.90;;;;;;5068321;28;20040;-73
2021/03/15 07:23:14;;;;;;;17.00;10.87;;;3.30;99.90;;;;;;5071326;28;20021;-74
2021/03/15 07:25:41;;;;;;;15.70;10.90;;;3.40;99.90;;;;;;5068813;28;20136;-69
2021/03/15 07:28:07;;;;;;;21.83;13.13;;;3.40;99.90;;;;;;5067883;28;20032;-69
2021/03/15 07:30:41;;;;;;;21.60;15.80;;;3.50;99.90;;;;;;5052802;28;20082;-71
2021/03/15 07:33:21;;;;;;;22.13;14.10;;;3.50;99.90;;;;;;5051053;28;20061;-72
2021/03/15 07:35:49;;;;;;;19.13;13.00;;;3.60;99.90;;;;;;5068539;28;20097;-70
2021/03/15 07:38:15;;;;;;;20.17;13.63;;;3.60;99.90;;;;;;5072697;28;20036;-70
2021/03/15 07:40:48;;;;;;;20.77;12.63;;;3.60;99.90;;;;;;5072852;28;20514;-70
2021/03/15 07:43:25;;;;;;;17.83;12.43;;;3.60;99.90;;;;;;5072742;28;20060;-70
2021/03/15 07:45:51;;;;;;;22.03;14.03;;;3.60;99.90;;;;;;5072634;28;20028;-71
2021/03/15 07:48:20;;;;;;;21.87;14.97;;;3.60;99.90;;;;;;5071369;28;20044;-68
2021/03/15 07:51:09;;;;;;;25.50;16.77;;;3.70;99.90;;;;;;5071235;28;20119;-71
2021/03/15 07:53:37;;;;;;;26.67;15.37;;;3.80;99.90;;;;;;5072650;28;20025;-75
2021/03/15 07:56:05;;;;;;;49.27;26.37;;;3.90;99.90;;;;;;5072517;28;20020;-65
2021/03/15 07:58:40;;;;;;;22.83;14.03;;;4.00;99.90;;;;;;5072564;28;20032;-69
2021/03/15 08:01:08;;;;;;;17.87;12.07;;;4.00;99.90;;;;;;5071799;28;20469;-72
2021/03/15 08:03:40;;;;;;;19.93;13.70;;;4.10;99.90;;;;;;5058036;28;20024;-69
2021/03/15 08:06:08;;;;;;;30.47;23.00;;;4.00;99.90;;;;;;5072650;28;20400;-69
2021/03/15 08:08:35;;;;;;;30.83;21.47;;;4.10;99.90;;;;;;5072559;28;20480;-69
2021/03/15 08:11:04;;;;;;;28.93;20.87;;;4.20;99.90;;;;;;5071126;28;20036;-68
2021/03/15 08:13:38;;;;;;;26.33;14.17;;;4.10;99.90;;;;;;5072268;28;20029;-70
2021/03/15 08:16:05;;;;;;;31.40;23.03;;;4.00;99.90;;;;;;5071744;28;20024;-73
2021/03/15 08:18:33;;;;;;;25.33;17.13;;;3.90;99.90;;;;;;5071929;28;20024;-74
2021/03/15 08:21:06;;;;;;;22.37;16.57;;;4.00;99.90;;;;;;5070908;28;20055;-75
2021/03/15 08:23:37;;;;;;;22.37;14.67;;;3.90;99.90;;;;;;5073410;28;20029;-69
2021/03/15 08:26:05;;;;;;;37.15;22.45;;;3.90;99.90;;;;;;5076064;28;20020;-72
2021/03/15 08:28:36;;;;;;;30.33;19.57;;;3.90;99.90;;;;;;5069680;28;20025;-70
2021/03/15 08:31:14;;;;;;;26.70;17.73;;;3.90;99.90;;;;;;5082742;28;20051;-72
2021/03/15 08:33:41;;;;;;;29.97;18.10;;;3.90;99.90;;;;;;5076543;28;20080;-74
2021/03/15 08:36:07;;;;;;;33.13;21.55;;;4.00;99.90;;;;;;5082969;28;20032;-74
2021/03/15 08:38:35;;;;;;;38.93;23.47;;;4.10;99.90;;;;;;5075699;28;20051;-72
2021/03/15 08:41:08;;;;;;;22.70;14.00;;;4.20;99.90;;;;;;5091066;28;20641;-73
2021/03/15 08:43:42;;;;;;;17.48;11.90;;;4.40;99.90;;;;;;5075822;28;20032;-75
2021/03/15 08:46:14;;;;;;;15.57;9.88;;;4.70;99.90;;;;;;5075669;28;20468;-74
2021/03/15 08:48:39;;;;;;;15.75;11.60;;;4.80;99.90;;;;;;5091163;28;20078;-75
2021/03/15 08:51:14;;;;;;;13.80;9.95;;;4.80;99.90;;;;;;5074269;28;20041;-74
2021/03/15 08:53:40;;;;;;;11.25;7.85;;;4.90;99.90;;;;;;5075684;28;20168;-71
2021/03/15 08:56:12;;;;;;;11.35;7.95;;;4.90;99.80;;;;;;5074295;28;20365;-75
2021/03/15 08:58:42;;;;;;;15.35;8.82;;;5.00;99.80;;;;;;5090983;28;20089;-76
2021/03/15 09:01:10;;;;;;;16.10;11.05;;;5.00;99.90;;;;;;5075049;28;20408;-73
2021/03/15 09:03:56;;;;;;;26.23;14.60;;;5.00;99.90;;;;;;5090941;28;20032;-74
2021/03/15 09:06:36;;;;;;;21.48;13.80;;;5.10;99.90;;;;;;5090918;28;20062;-74
2021/03/15 09:09:12;;;;;;;17.13;11.45;;;5.00;99.90;;;;;;5074022;28;20047;-72
2021/03/15 09:11:38;;;;;;;19.35;12.20;;;5.00;99.90;;;;;;5086399;28;20032;-75
2021/03/15 09:16:43;;;;;;;31.52;19.33;;;4.90;99.90;;;;;;5074932;28;20571;-72
2021/03/15 09:19:41;;;;;;;32.20;21.52;;;4.90;99.90;;;;;;5074983;28;20358;-72
2021/03/15 09:22:34;;;;;;;23.25;16.30;;;4.90;99.90;;;;;;5074597;28;20565;-71
2021/03/15 09:25:01;;;;;;;20.08;14.00;;;4.90;99.90;;;;;;5060355;28;20033;-72
2021/03/15 09:27:40;;;;;;;18.17;11.35;;;4.90;99.90;;;;;;5055000;28;20481;-71
2021/03/15 09:30:18;;;;;;;18.13;12.15;;;4.90;99.90;;;;;;5053655;28;20029;-71
2021/03/15 09:32:50;;;;;;;20.67;11.50;;;4.90;99.90;;;;;;5054740;28;20044;-73
2021/03/15 09:35:22;;;;;;;30.08;15.55;;;4.90;99.90;;;;;;5070086;28;20025;-72
2021/03/15 09:38:03;;;;;;;20.45;11.93;;;4.90;99.90;;;;;;5073830;28;20028;-73
2021/03/15 09:40:37;;;;;;;16.77;10.73;;;4.90;99.90;;;;;;5073311;28;20039;-73
2021/03/15 09:43:04;;;;;;;11.23;7.60;;;5.00;99.70;;;;;;5087537;28;20075;-72
2021/03/15 09:45:40;;;;;;;18.42;11.32;;;5.00;99.70;;;;;;5089129;28;20024;-74
2021/03/15 09:48:17;;;;;;;16.52;10.20;;;5.00;99.50;;;;;;5072697;28;20038;-73
2021/03/15 09:50:50;;;;;;;12.77;8.45;;;5.10;99.20;;;;;;5069936;28;20486;-74
2021/03/15 09:53:17;;;;;;;26.98;15.10;;;5.00;99.00;;;;;;5053223;28;20412;-74
2021/03/15 09:55:43;;;;;;;46.17;27.73;;;5.00;98.80;;;;;;5054453;28;20481;-74
2021/03/15 09:58:14;;;;;;;49.80;30.17;;;5.00;98.80;;;;;;5054701;28;20461;-72
2021/03/15 10:00:40;;;;;;;24.50;15.57;;;5.00;99.10;;;;;;5071397;28;20054;-75
2021/03/15 10:03:07;;;;;;;15.95;10.80;;;5.10;99.00;;;;;;5066833;28;20385;-73
2021/03/15 10:05:33;;;;;;;14.93;10.90;;;5.10;99.40;;;;;;5074159;28;20024;-75
2021/03/15 10:07:59;;;;;;;16.52;11.90;;;5.10;98.70;;;;;;5072865;28;20020;-72
2021/03/15 10:10:25;;;;;;;17.52;13.10;;;5.10;98.80;;;;;;5073793;28;20039;-77
2021/03/15 10:13:04;;;;;;;23.42;15.27;;;5.10;99.10;;;;;;5074061;28;20028;-75
2021/03/15 10:15:30;;;;;;;16.13;10.68;;;5.10;99.00;;;;;;5072392;28;20029;-74
2021/03/15 10:17:57;;;;;;;16.38;11.23;;;5.20;99.00;;;;;;5074043;28;20029;-74
2021/03/15 10:20:29;;;;;;;24.00;14.73;;;5.20;98.90;;;;;;5057431;28;20040;-73
2021/03/15 10:22:55;;;;;;;19.00;11.55;;;5.30;99.30;;;;;;5053903;28;20029;-76
2021/03/15 10:25:21;;;;;;;20.60;11.50;;;5.30;99.40;;;;;;5053714;28;20032;-76
2021/03/15 10:27:58;;;;;;;23.13;13.93;;;5.30;99.30;;;;;;5069160;28;20033;-75
2021/03/15 10:30:28;;;;;;;25.63;17.38;;;5.30;98.90;;;;;;5069128;28;20127;-76
2021/03/15 10:32:55;;;;;;;42.10;26.30;;;5.40;99.00;;;;;;5068634;28;20049;-76
2021/03/15 10:35:23;;;;;;;49.20;30.17;;;5.40;99.10;;;;;;5069070;28;20079;-73
2021/03/15 10:37:52;;;;;;;105.43;55.75;;;5.40;99.10;;;;;;5085398;28;20119;-75
2021/03/15 10:40:20;;;;;;;72.32;38.58;;;5.40;99.30;;;;;;5073044;28;20064;-74
2021/03/15 10:42:47;;;;;;;62.67;33.92;;;5.50;98.90;;;;;;5073536;28;20104;-75
2021/03/15 10:45:14;;;;;;;37.63;22.33;;;5.50;99.50;;;;;;5063936;28;20028;-75
2021/03/15 10:47:40;;;;;;;34.03;23.50;;;5.50;99.30;;;;;;5062081;28;20033;-76
2021/03/15 10:50:32;;;;;;;30.10;19.25;;;5.50;99.50;;;;;;5052102;28;20032;-71
2021/03/15 10:53:22;;;;;;;39.88;25.70;;;5.40;99.50;;;;;;5052053;28;20035;-71
2021/03/15 10:55:51;;;;;;;57.10;31.85;;;5.40;99.60;;;;;;5053292;28;20028;-72
2021/03/15 10:58:18;;;;;;;45.35;29.50;;;5.50;99.50;;;;;;5053289;28;20029;-74
2021/03/15 11:00:51;;;;;;;35.58;23.63;;;5.50;99.40;;;;;;5066094;28;20115;-74
2021/03/15 11:03:24;;;;;;;36.83;23.17;;;5.50;98.90;;;;;;5065429;28;20040;-74
2021/03/15 11:06:17;;;;;;;33.72;23.30;;;5.60;99.20;;;;;;5053386;28;20037;-72
2021/03/15 11:08:52;;;;;;;37.40;22.23;;;5.60;99.20;;;;;;5068389;28;20543;-72
2021/03/15 11:11:24;;;;;;;30.80;20.05;;;5.60;98.80;;;;;;5051811;28;20032;-75
2021/03/15 11:13:55;;;;;;;38.22;23.73;;;5.60;98.70;;;;;;5053391;28;20362;-74
2021/03/15 11:16:28;;;;;;;34.53;23.48;;;5.60;99.20;;;;;;5051639;28;20488;-74
2021/03/15 11:19:09;;;;;;;38.75;25.42;;;5.70;99.40;;;;;;5052969;28;20036;-76
2021/03/15 11:21:38;;;;;;;59.08;33.10;;;5.70;99.30;;;;;;5051922;28;20037;-75
2021/03/15 11:24:05;;;;;;;62.80;35.10;;;5.70;99.60;;;;;;5072276;28;20032;-74
2021/03/15 11:26:46;;;;;;;57.22;30.38;;;5.70;99.70;;;;;;5073010;28;20048;-68
2021/03/15 11:29:12;;;;;;;56.88;32.03;;;5.70;99.30;;;;;;5069228;28;20021;-74
2021/03/15 11:31:50;;;;;;;50.30;31.42;;;5.70;99.50;;;;;;5063568;28;20366;-69
2021/03/15 11:34:22;;;;;;;53.65;36.65;;;5.60;99.70;;;;;;5067598;28;20089;-73
2021/03/15 11:36:49;;;;;;;;;;;5.60;99.90;;;;;;5053199;28;20025;-73
2021/03/15 11:39:16;;;;;;;46.15;25.98;;;5.60;99.90;;;;;;5052445;28;19959;-70
2021/03/15 11:41:43;;;;;;;41.35;24.17;;;5.50;99.90;;;;;;5067761;28;20039;-71
2021/03/15 11:44:09;;;;;;;43.15;26.45;;;5.40;99.90;;;;;;5052654;28;20128;-71
2021/03/15 11:46:35;;;;;;;36.38;21.90;;;5.50;99.90;;;;;;5052816;28;20047;-71
2021/03/15 11:49:03;;;;;;;33.92;19.67;;;5.50;99.90;;;;;;5052665;28;20461;-72
2021/03/15 11:51:29;;;;;;;31.80;20.88;;;5.40;99.90;;;;;;5050326;28;20031;-70
2021/03/15 11:53:55;;;;;;;32.90;20.25;;;5.40;99.90;;;;;;5051852;28;20025;-71
2021/03/15 11:56:21;;;;;;;35.28;21.70;;;5.40;99.90;;;;;;5060095;28;20029;-71
2021/03/15 11:58:47;;;;;;;32.35;22.35;;;5.40;99.90;;;;;;5055740;28;20382;-70
2021/03/15 12:01:13;;;;;;;26.23;18.08;;;5.40;99.90;;;;;;5055061;28;20500;-72
2021/03/15 12:03:39;;;;;;;42.08;23.67;;;5.40;99.90;;;;;;5056340;28;20528;-70
2021/03/15 12:06:06;;;;;;;31.23;19.45;;;5.40;99.90;;;;;;5056506;28;20039;-71
2021/03/15 12:08:32;;;;;;;30.58;20.65;;;5.40;99.90;;;;;;5056504;28;20090;-72
2021/03/15 12:10:59;;;;;;;30.73;19.02;;;5.40;99.90;;;;;;5061835;28;20033;-70
2021/03/15 12:13:25;;;;;;;33.30;23.67;;;5.40;99.90;;;;;;5070635;28;20469;-72
2021/03/15 12:15:51;;;;;;;29.67;19.67;;;5.40;99.90;;;;;;5076264;28;20021;-71
2021/03/15 12:18:18;;;;;;;27.10;17.85;;;5.40;99.90;;;;;;5076295;28;20020;-72
2021/03/15 12:20:44;;;;;;;32.63;19.63;;;5.30;99.90;;;;;;5076174;28;20035;-71
2021/03/15 12:23:10;;;;;;;24.10;18.25;;;5.20;99.90;;;;;;5076378;28;20062;-69
2021/03/15 12:25:38;;;;;;;34.33;22.25;;;5.20;99.90;;;;;;5076198;28;20114;-71
2021/03/15 12:28:05;;;;;;;35.95;23.52;;;5.10;99.90;;;;;;5076087;28;20123;-67
2021/03/15 12:30:31;;;;;;;38.15;26.20;;;5.20;99.90;;;;;;5076015;28;20074;-70
2021/03/15 12:32:57;;;;;;;32.30;22.77;;;5.20;99.90;;;;;;5075802;28;20064;-69
2021/03/15 12:35:24;;;;;;;32.35;21.80;;;5.30;99.90;;;;;;5075745;28;20028;-70
2021/03/15 12:37:50;;;;;;;31.98;21.20;;;5.30;99.90;;;;;;5075762;28;20056;-69
2021/03/15 12:40:17;;;;;;;28.88;19.13;;;5.40;99.90;;;;;;5074518;28;20090;-72
2021/03/15 12:42:43;;;;;;;28.60;19.48;;;5.50;99.90;;;;;;5075785;28;20488;-70
2021/03/15 12:45:10;;;;;;;31.70;20.08;;;5.60;99.90;;;;;;5074446;28;20052;-70
2021/03/15 12:47:36;;;;;;;28.70;19.08;;;5.70;99.90;;;;;;5073875;28;20036;-70
2021/03/15 12:50:04;;;;;;;28.55;19.02;;;5.70;99.90;;;;;;5060258;28;20524;-72
2021/03/15 12:52:30;;;;;;;31.67;21.42;;;5.80;99.90;;;;;;5063415;28;20107;-71
2021/03/15 12:54:57;;;;;;;33.90;19.30;;;5.80;99.90;;;;;;5069606;28;20120;-69
2021/03/15 12:57:23;;;;;;;28.92;18.38;;;5.90;99.90;;;;;;5075669;28;20059;-68
2021/03/15 12:59:49;;;;;;;28.88;17.38;;;6.00;99.30;;;;;;5075591;28;20450;-71
2021/03/15 13:02:15;;;;;;;66.05;34.00;;;6.00;98.90;;;;;;5073992;28;20028;-73